createdAt,value
2023-01-29T00:00:05.356Z,26.88
2023-01-29T00:00:35.479Z,26.87
2023-01-29T00:01:05.475Z,26.81
2023-01-29T00:01:35.784Z,26.79
2023-01-29T00:02:05.930Z,26.79
2023-01-29T00:02:35.719Z,26.81
2023-01-29T00:03:05.872Z,26.85
2023-01-29T00:03:35.841Z,26.79
2023-01-29T00:04:05.984Z,26.85
2023-01-29T00:04:35.962Z,26.85
2023-01-29T00:05:25.461Z,26.81
2023-01-29T00:05:36.097Z,26.77
2023-01-29T00:06:06.099Z,26.85
2023-01-29T00:06:36.087Z,26.81
2023-01-29T00:07:06.085Z,26.78
2023-01-29T00:07:36.073Z,26.80
2023-01-29T00:08:06.206Z,26.85
2023-01-29T00:08:36.312Z,26.76
2023-01-29T00:09:06.427Z,26.79
2023-01-29T00:09:36.421Z,26.81
2023-01-29T00:10:06.533Z,26.84
2023-01-29T00:10:36.534Z,26.89
2023-01-29T00:11:06.538Z,26.82
2023-01-29T00:11:36.644Z,26.82
2023-01-29T00:12:06.773Z,26.82
2023-01-29T00:12:36.767Z,26.77
2023-01-29T00:13:06.884Z,26.79
2023-01-29T00:13:37.003Z,26.81
2023-01-29T00:14:07.132Z,26.85
2023-01-29T00:14:37.255Z,26.77
2023-01-29T00:15:07.356Z,26.78
2023-01-29T00:15:37.477Z,26.86
2023-01-29T00:16:07.480Z,26.82
2023-01-29T00:16:37.500Z,26.84
2023-01-29T00:17:07.604Z,26.84
2023-01-29T00:17:37.597Z,26.76
2023-01-29T00:18:07.712Z,26.77
2023-01-29T00:18:37.826Z,26.79
2023-01-29T00:19:07.954Z,26.79
2023-01-29T00:19:38.071Z,26.76
2023-01-29T00:20:08.070Z,26.79
2023-01-29T00:20:38.183Z,26.73
2023-01-29T00:21:08.175Z,26.79
2023-01-29T00:21:38.166Z,26.77
2023-01-29T00:22:08.285Z,26.81
2023-01-29T00:22:38.280Z,26.77
2023-01-29T00:23:08.274Z,26.79
2023-01-29T00:23:38.383Z,26.79
2023-01-29T00:24:08.562Z,26.77
2023-01-29T00:24:38.578Z,26.79
2023-01-29T00:25:08.697Z,26.76
2023-01-29T00:25:39.149Z,26.79
2023-01-29T00:26:08.897Z,26.82
2023-01-29T00:26:38.891Z,26.79
2023-01-29T00:27:08.889Z,26.77
2023-01-29T00:27:38.884Z,26.74
2023-01-29T00:28:09.005Z,26.79
2023-01-29T00:28:39.126Z,26.82
2023-01-29T00:29:09.129Z,26.74
2023-01-29T00:29:39.120Z,26.82
2023-01-29T00:30:09.265Z,26.79
2023-01-29T00:30:39.673Z,26.86
2023-01-29T00:31:09.385Z,26.83
2023-01-29T00:31:39.635Z,26.92
2023-01-29T00:32:09.673Z,26.74
2023-01-29T00:32:39.487Z,26.73
2023-01-29T00:33:09.579Z,26.76
2023-01-29T00:33:39.704Z,26.80
2023-01-29T00:34:09.698Z,26.77
2023-01-29T00:34:39.694Z,26.76
2023-01-29T00:35:09.811Z,26.77
2023-01-29T00:35:39.924Z,26.77
2023-01-29T00:36:09.936Z,26.83
2023-01-29T00:36:39.906Z,26.74
2023-01-29T00:37:10.021Z,26.77
2023-01-29T00:37:40.016Z,26.82
2023-01-29T00:38:10.015Z,26.77
2023-01-29T00:38:40.131Z,26.76
2023-01-29T00:39:10.120Z,26.77
2023-01-29T00:39:47.913Z,26.76
2023-01-29T00:40:10.135Z,26.79
2023-01-29T00:40:40.138Z,26.85
2023-01-29T00:41:10.135Z,26.76
2023-01-29T00:41:40.257Z,26.80
2023-01-29T00:42:10.371Z,26.79
2023-01-29T00:42:40.488Z,26.82
2023-01-29T00:43:10.617Z,26.79
2023-01-29T00:43:40.720Z,26.80
2023-01-29T00:44:10.849Z,26.76
2023-01-29T00:44:40.840Z,26.79
2023-01-29T00:45:10.960Z,26.77
2023-01-29T00:45:40.955Z,26.80
2023-01-29T00:46:11.028Z,26.82
2023-01-29T00:46:41.173Z,26.71
2023-01-29T00:47:11.044Z,26.83
2023-01-29T00:47:41.043Z,26.77
2023-01-29T00:48:11.059Z,26.76
2023-01-29T00:48:41.041Z,26.84
2023-01-29T00:49:11.079Z,26.80
2023-01-29T00:49:41.101Z,26.80
2023-01-29T00:50:11.144Z,26.80
2023-01-29T00:50:41.170Z,26.76
2023-01-29T00:51:11.199Z,26.77
2023-01-29T00:51:41.239Z,26.76
2023-01-29T00:52:11.272Z,26.79
2023-01-29T00:52:41.333Z,26.73
2023-01-29T00:53:11.357Z,26.74
2023-01-29T00:53:41.387Z,26.77
2023-01-29T00:54:11.415Z,26.82
2023-01-29T00:54:41.457Z,26.73
2023-01-29T00:55:11.493Z,26.73
2023-01-29T00:55:41.520Z,26.80
2023-01-29T00:56:11.556Z,26.82
2023-01-29T00:56:41.582Z,26.79
2023-01-29T00:57:11.634Z,26.76
2023-01-29T00:57:41.647Z,26.71
2023-01-29T00:58:11.669Z,26.69
2023-01-29T00:58:41.701Z,26.82
2023-01-29T00:59:11.746Z,26.77
2023-01-29T00:59:41.772Z,26.74
2023-01-29T01:00:11.813Z,26.79
2023-01-29T01:00:41.904Z,26.79
2023-01-29T01:01:11.968Z,26.66
2023-01-29T01:01:42.009Z,26.79
2023-01-29T01:02:12.121Z,26.79
2023-01-29T01:02:42.140Z,26.82
2023-01-29T01:03:12.156Z,26.77
2023-01-29T01:03:42.220Z,26.77
2023-01-29T01:04:12.241Z,26.72
2023-01-29T01:04:42.270Z,26.80
2023-01-29T01:05:12.296Z,26.80
2023-01-29T01:05:42.339Z,26.77
2023-01-29T01:06:12.375Z,26.74
2023-01-29T01:06:42.411Z,26.79
2023-01-29T01:07:48.482Z,26.81
2023-01-29T01:08:18.559Z,26.87
2023-01-29T01:08:48.644Z,26.84
2023-01-29T01:09:18.724Z,26.81
2023-01-29T01:09:48.808Z,26.77
2023-01-29T01:10:19.039Z,26.74
2023-01-29T01:10:48.992Z,26.75
2023-01-29T01:11:19.063Z,26.75
2023-01-29T01:11:49.148Z,26.78
2023-01-29T01:12:19.226Z,26.83
2023-01-29T01:12:49.310Z,26.74
2023-01-29T01:13:19.385Z,26.77
2023-01-29T01:13:49.469Z,26.71
2023-01-29T01:14:19.551Z,26.78
2023-01-29T01:14:49.648Z,26.75
2023-01-29T01:15:19.719Z,26.83
2023-01-29T01:15:49.801Z,26.77
2023-01-29T01:16:19.906Z,26.81
2023-01-29T01:16:49.983Z,26.72
2023-01-29T01:17:20.068Z,26.83
2023-01-29T01:17:50.074Z,26.82
2023-01-29T01:18:20.063Z,26.77
2023-01-29T01:18:50.088Z,26.78
2023-01-29T01:19:20.063Z,26.75
2023-01-29T01:19:50.179Z,26.77
2023-01-29T01:20:20.306Z,26.77
2023-01-29T01:20:50.292Z,26.86
2023-01-29T01:21:20.287Z,26.78
2023-01-29T01:21:50.279Z,26.74
2023-01-29T01:22:20.400Z,26.77
2023-01-29T01:22:50.393Z,26.81
2023-01-29T01:23:20.393Z,26.72
2023-01-29T01:23:50.531Z,26.74
2023-01-29T01:24:20.693Z,26.72
2023-01-29T01:24:50.577Z,26.81
2023-01-29T01:25:20.676Z,26.75
2023-01-29T01:25:50.688Z,26.74
2023-01-29T01:26:20.681Z,26.77
2023-01-29T01:26:50.672Z,26.68
2023-01-29T01:27:20.799Z,26.75
2023-01-29T01:27:50.908Z,26.72
2023-01-29T01:28:21.028Z,26.74
2023-01-29T01:28:51.046Z,26.72
2023-01-29T01:29:21.048Z,26.74
2023-01-29T01:29:51.047Z,26.75
2023-01-29T01:30:21.051Z,26.78
2023-01-29T01:30:51.100Z,26.80
2023-01-29T01:31:21.146Z,26.77
2023-01-29T01:31:51.169Z,26.77
2023-01-29T01:32:21.170Z,26.71
2023-01-29T01:32:51.163Z,26.83
2023-01-29T01:33:21.279Z,26.77
2023-01-29T01:33:51.280Z,26.81
2023-01-29T01:34:21.298Z,26.77
2023-01-29T01:34:51.392Z,26.84
2023-01-29T01:35:21.511Z,26.80
2023-01-29T01:35:51.517Z,26.78
2023-01-29T01:36:21.504Z,26.73
2023-01-29T01:36:51.502Z,26.78
2023-01-29T01:37:21.635Z,26.79
2023-01-29T01:37:51.733Z,26.73
2023-01-29T01:38:21.860Z,26.69
2023-01-29T01:38:51.860Z,26.66
2023-01-29T01:39:21.858Z,26.71
2023-01-29T01:39:51.974Z,26.69
2023-01-29T01:40:21.976Z,26.73
2023-01-29T01:40:51.963Z,26.65
2023-01-29T01:41:22.094Z,26.77
2023-01-29T01:41:52.100Z,26.73
2023-01-29T01:42:22.213Z,26.75
2023-01-29T01:42:52.220Z,26.83
2023-01-29T01:43:22.320Z,26.77
2023-01-29T01:43:52.326Z,26.73
2023-01-29T01:44:22.323Z,26.72
2023-01-29T01:44:52.470Z,26.84
2023-01-29T01:45:22.451Z,26.81
2023-01-29T01:45:52.504Z,26.79
2023-01-29T01:46:22.476Z,26.72
2023-01-29T01:46:52.470Z,26.77
2023-01-29T01:47:22.477Z,26.72
2023-01-29T01:47:52.594Z,26.70
2023-01-29T01:48:22.718Z,26.77
2023-01-29T01:48:52.833Z,26.75
2023-01-29T01:49:22.858Z,26.69
2023-01-29T01:49:52.829Z,26.72
2023-01-29T01:50:22.953Z,26.65
2023-01-29T01:50:52.976Z,26.73
2023-01-29T01:51:22.970Z,26.64
2023-01-29T01:51:53.087Z,26.80
2023-01-29T01:52:23.205Z,26.78
2023-01-29T01:52:53.321Z,26.69
2023-01-29T01:53:23.309Z,26.77
2023-01-29T01:53:53.427Z,26.73
2023-01-29T01:54:23.422Z,26.71
2023-01-29T01:54:53.422Z,26.69
2023-01-29T01:55:23.539Z,26.68
2023-01-29T01:55:53.722Z,26.58
2023-01-29T01:56:23.716Z,26.66
2023-01-29T01:56:53.829Z,26.64
2023-01-29T01:57:23.827Z,26.69
2023-01-29T01:57:53.824Z,26.61
2023-01-29T01:58:23.941Z,26.73
2023-01-29T01:58:53.955Z,26.64
2023-01-29T01:59:23.949Z,26.75
2023-01-29T01:59:54.063Z,26.77
2023-01-29T02:00:24.059Z,26.63
2023-01-29T02:00:54.221Z,26.68
2023-01-29T02:01:25.775Z,26.66
2023-01-29T02:01:54.261Z,26.72
2023-01-29T02:02:24.340Z,26.68
2023-01-29T02:02:54.349Z,26.65
2023-01-29T02:03:24.483Z,26.68
2023-01-29T02:03:54.474Z,26.66
2023-01-29T02:04:24.478Z,26.66
2023-01-29T02:04:54.487Z,26.73
2023-01-29T02:05:24.590Z,26.66
2023-01-29T02:05:54.602Z,26.68
2023-01-29T02:06:24.605Z,26.69
2023-01-29T02:06:54.714Z,26.71
2023-01-29T02:07:24.824Z,26.69
2023-01-29T02:07:54.912Z,26.67
2023-01-29T02:08:24.994Z,26.69
2023-01-29T02:08:55.072Z,26.70
2023-01-29T02:09:25.154Z,26.69
2023-01-29T02:09:55.235Z,26.69
2023-01-29T02:10:25.314Z,26.69
2023-01-29T02:10:55.405Z,26.66
2023-01-29T02:11:25.493Z,26.66
2023-01-29T02:11:55.573Z,26.70
2023-01-29T02:12:25.660Z,26.67
2023-01-29T02:12:55.742Z,26.69
2023-01-29T02:13:25.816Z,26.73
2023-01-29T02:13:55.907Z,26.67
2023-01-29T02:14:25.985Z,26.69
2023-01-29T02:14:56.064Z,26.64
2023-01-29T02:15:26.146Z,26.64
2023-01-29T02:15:56.239Z,26.66
2023-01-29T02:16:26.334Z,26.66
2023-01-29T02:16:56.410Z,26.66
2023-01-29T02:17:26.559Z,26.66
2023-01-29T02:17:56.569Z,26.70
2023-01-29T02:18:26.684Z,26.75
2023-01-29T02:18:56.699Z,26.67
2023-01-29T02:19:26.695Z,26.75
2023-01-29T02:19:56.691Z,26.70
2023-01-29T02:20:26.743Z,26.64
2023-01-29T02:20:56.706Z,26.66
2023-01-29T02:21:26.702Z,26.66
2023-01-29T02:21:56.698Z,26.66
2023-01-29T02:22:26.814Z,26.72
2023-01-29T02:22:56.813Z,26.70
2023-01-29T02:23:26.810Z,26.70
2023-01-29T02:23:57.090Z,26.66
2023-01-29T02:24:27.028Z,26.70
2023-01-29T02:24:57.042Z,26.73
2023-01-29T02:25:27.009Z,26.63
2023-01-29T02:25:57.132Z,26.66
2023-01-29T02:26:27.143Z,26.67
2023-01-29T02:26:57.125Z,26.71
2023-01-29T02:27:27.116Z,26.67
2023-01-29T02:27:57.234Z,26.72
2023-01-29T02:28:27.240Z,26.63
2023-01-29T02:28:57.243Z,26.66
2023-01-29T02:29:27.242Z,26.72
2023-01-29T02:29:57.224Z,26.75
2023-01-29T02:30:27.347Z,26.63
2023-01-29T02:30:57.523Z,26.70
2023-01-29T02:31:27.602Z,26.76
2023-01-29T02:31:57.670Z,26.68
2023-01-29T02:32:27.643Z,26.61
2023-01-29T02:32:57.639Z,26.64
2023-01-29T02:33:27.637Z,26.67
2023-01-29T02:33:57.637Z,26.67
2023-01-29T02:34:27.632Z,26.67
2023-01-29T02:34:57.757Z,26.66
2023-01-29T02:35:27.755Z,26.68
2023-01-29T02:35:57.770Z,26.73
2023-01-29T02:36:27.876Z,26.64
2023-01-29T02:36:57.864Z,26.64
2023-01-29T02:37:27.988Z,26.67
2023-01-29T02:37:58.106Z,26.67
2023-01-29T02:38:28.102Z,26.73
2023-01-29T02:38:58.096Z,26.67
2023-01-29T02:39:28.220Z,26.68
2023-01-29T02:39:58.214Z,26.68
2023-01-29T02:40:28.333Z,26.66
2023-01-29T02:40:58.451Z,26.68
2023-01-29T02:41:28.464Z,26.68
2023-01-29T02:41:58.454Z,26.67
2023-01-29T02:42:28.575Z,26.61
2023-01-29T02:42:58.691Z,26.67
2023-01-29T02:43:28.692Z,26.64
2023-01-29T02:43:58.704Z,26.64
2023-01-29T02:44:28.700Z,26.66
2023-01-29T02:44:58.828Z,26.70
2023-01-29T02:45:28.816Z,26.63
2023-01-29T02:45:58.914Z,26.67
2023-01-29T02:46:28.901Z,26.67
2023-01-29T02:46:58.910Z,26.64
2023-01-29T02:47:29.010Z,26.70
2023-01-29T02:47:59.155Z,26.66
2023-01-29T02:48:29.128Z,26.66
2023-01-29T02:48:59.147Z,26.67
2023-01-29T02:49:29.138Z,26.66
2023-01-29T02:49:59.251Z,26.64
2023-01-29T02:50:29.375Z,26.59
2023-01-29T02:50:59.522Z,26.61
2023-01-29T02:51:29.608Z,26.64
2023-01-29T02:51:59.746Z,26.64
2023-01-29T02:52:29.725Z,26.68
2023-01-29T02:52:59.843Z,26.68
2023-01-29T02:53:29.836Z,26.67
2023-01-29T02:53:59.956Z,26.68
2023-01-29T02:54:29.958Z,26.67
2023-01-29T02:54:59.972Z,26.68
2023-01-29T02:55:29.945Z,26.65
2023-01-29T02:55:59.951Z,26.61
2023-01-29T02:56:29.978Z,26.66
2023-01-29T02:56:59.965Z,26.63
2023-01-29T02:57:29.976Z,26.63
2023-01-29T02:57:59.974Z,26.63
2023-01-29T02:58:30.100Z,26.61
2023-01-29T02:59:00.209Z,26.63
2023-01-29T02:59:30.336Z,26.66
2023-01-29T03:00:00.446Z,26.59
2023-01-29T03:00:30.445Z,26.63
2023-01-29T03:01:00.604Z,26.61
2023-01-29T03:01:30.612Z,26.66
2023-01-29T03:02:00.629Z,26.61
2023-01-29T03:02:30.644Z,26.66
2023-01-29T03:03:00.610Z,26.56
2023-01-29T03:03:30.606Z,26.59
2023-01-29T03:04:00.616Z,26.59
2023-01-29T03:04:30.722Z,26.59
2023-01-29T03:05:00.840Z,26.63
2023-01-29T03:05:30.837Z,26.55
2023-01-29T03:06:00.956Z,26.56
2023-01-29T03:06:31.009Z,26.61
2023-01-29T03:07:00.978Z,26.61
2023-01-29T03:07:31.074Z,26.58
2023-01-29T03:08:01.156Z,26.67
2023-01-29T03:08:31.241Z,26.59
2023-01-29T03:09:01.328Z,26.61
2023-01-29T03:09:31.414Z,26.70
2023-01-29T03:10:01.602Z,26.64
2023-01-29T03:10:31.542Z,26.59
2023-01-29T03:11:01.622Z,26.62
2023-01-29T03:11:31.709Z,26.59
2023-01-29T03:12:01.813Z,26.64
2023-01-29T03:12:31.896Z,26.64
2023-01-29T03:13:01.976Z,26.67
2023-01-29T03:13:32.055Z,26.67
2023-01-29T03:14:02.149Z,26.65
2023-01-29T03:14:32.237Z,26.62
2023-01-29T03:15:02.320Z,26.62
2023-01-29T03:15:32.410Z,26.57
2023-01-29T03:16:02.505Z,26.56
2023-01-29T03:16:32.604Z,26.58
2023-01-29T03:17:02.595Z,26.59
2023-01-29T03:17:32.707Z,26.61
2023-01-29T03:18:02.811Z,26.59
2023-01-29T03:18:32.809Z,26.59
2023-01-29T03:19:02.807Z,26.58
2023-01-29T03:19:32.807Z,26.59
2023-01-29T03:20:02.925Z,26.64
2023-01-29T03:20:32.916Z,26.61
2023-01-29T03:21:02.918Z,26.56
2023-01-29T03:21:33.032Z,26.65
2023-01-29T03:22:03.059Z,26.67
2023-01-29T03:22:33.028Z,26.62
2023-01-29T03:23:03.145Z,26.62
2023-01-29T03:23:33.262Z,26.62
2023-01-29T03:24:03.288Z,26.64
2023-01-29T03:24:33.382Z,26.59
2023-01-29T03:25:03.532Z,26.61
2023-01-29T03:25:33.503Z,26.62
2023-01-29T03:26:03.615Z,26.64
2023-01-29T03:26:33.740Z,26.65
2023-01-29T03:27:03.738Z,26.62
2023-01-29T03:27:33.732Z,26.57
2023-01-29T03:28:03.840Z,26.67
2023-01-29T03:28:33.840Z,26.62
2023-01-29T03:29:03.961Z,26.62
2023-01-29T03:29:34.070Z,26.65
2023-01-29T03:30:04.074Z,26.62
2023-01-29T03:30:34.080Z,26.65
2023-01-29T03:31:04.207Z,26.59
2023-01-29T03:31:34.316Z,26.54
2023-01-29T03:32:04.334Z,26.53
2023-01-29T03:32:34.212Z,26.68
2023-01-29T03:33:04.331Z,26.62
2023-01-29T03:33:34.324Z,26.67
2023-01-29T03:34:04.445Z,26.62
2023-01-29T03:34:34.463Z,26.62
2023-01-29T03:35:04.566Z,26.59
2023-01-29T03:35:34.557Z,26.64
2023-01-29T03:36:04.677Z,26.65
2023-01-29T03:36:34.673Z,26.59
2023-01-29T03:37:04.790Z,26.61
2023-01-29T03:37:34.843Z,26.61
2023-01-29T03:38:04.814Z,26.57
2023-01-29T03:38:34.810Z,26.61
2023-01-29T03:39:04.938Z,26.62
2023-01-29T03:39:34.925Z,26.62
2023-01-29T03:40:05.043Z,26.57
2023-01-29T03:40:35.037Z,26.59
2023-01-29T03:41:05.158Z,26.59
2023-01-29T03:41:35.269Z,26.57
2023-01-29T03:42:05.273Z,26.59
2023-01-29T03:42:35.269Z,26.59
2023-01-29T03:43:05.379Z,26.59
2023-01-29T03:43:35.500Z,26.61
2023-01-29T03:44:05.620Z,26.64
2023-01-29T03:44:35.635Z,26.56
2023-01-29T03:45:05.626Z,26.54
2023-01-29T03:45:35.843Z,26.56
2023-01-29T03:46:05.976Z,26.56
2023-01-29T03:46:35.862Z,26.56
2023-01-29T03:47:05.973Z,26.51
2023-01-29T03:47:36.091Z,26.57
2023-01-29T03:48:06.207Z,26.51
2023-01-29T03:48:36.207Z,26.55
2023-01-29T03:49:06.322Z,26.65
2023-01-29T03:49:36.320Z,26.64
2023-01-29T03:50:06.322Z,26.55
2023-01-29T03:50:36.325Z,26.54
2023-01-29T03:51:06.441Z,26.55
2023-01-29T03:51:36.437Z,26.50
2023-01-29T03:52:06.564Z,26.55
2023-01-29T03:52:36.592Z,26.53
2023-01-29T03:53:06.586Z,26.64
2023-01-29T03:53:36.582Z,26.57
2023-01-29T03:54:06.593Z,26.62
2023-01-29T03:54:36.694Z,26.59
2023-01-29T03:55:06.872Z,26.57
2023-01-29T03:55:36.935Z,26.57
2023-01-29T03:56:06.964Z,26.51
2023-01-29T03:56:36.959Z,26.56
2023-01-29T03:57:06.961Z,26.50
2023-01-29T03:57:37.091Z,26.56
2023-01-29T03:58:07.079Z,26.50
2023-01-29T03:58:37.075Z,26.54
2023-01-29T03:59:07.196Z,26.56
2023-01-29T03:59:37.189Z,26.51
2023-01-29T04:00:07.190Z,26.56
2023-01-29T04:00:37.304Z,26.64
2023-01-29T04:01:07.344Z,26.54
2023-01-29T04:01:37.382Z,26.54
2023-01-29T04:02:07.361Z,26.67
2023-01-29T04:02:37.353Z,26.59
2023-01-29T04:03:07.494Z,26.61
2023-01-29T04:03:37.587Z,26.57
2023-01-29T04:04:07.599Z,26.56
2023-01-29T04:04:37.582Z,26.51
2023-01-29T04:05:07.575Z,26.60
2023-01-29T04:05:37.568Z,26.62
2023-01-29T04:06:07.688Z,26.56
2023-01-29T04:06:37.691Z,26.63
2023-01-29T04:07:07.686Z,26.56
2023-01-29T04:07:37.775Z,26.57
2023-01-29T04:08:07.856Z,26.59
2023-01-29T04:08:37.938Z,26.59
2023-01-29T04:09:08.020Z,26.62
2023-01-29T04:09:38.101Z,26.57
2023-01-29T04:10:08.181Z,26.57
2023-01-29T04:10:38.266Z,26.57
2023-01-29T04:11:08.342Z,26.66
2023-01-29T04:11:38.448Z,26.57
2023-01-29T04:12:08.500Z,26.56
2023-01-29T04:12:38.587Z,26.60
2023-01-29T04:13:08.660Z,26.54
2023-01-29T04:13:38.740Z,26.59
2023-01-29T04:14:08.827Z,26.56
2023-01-29T04:14:38.921Z,26.55
2023-01-29T04:15:08.987Z,26.57
2023-01-29T04:15:39.076Z,26.55
2023-01-29T04:16:09.234Z,26.57
2023-01-29T04:16:39.230Z,26.60
2023-01-29T04:17:09.179Z,26.57
2023-01-29T04:17:39.294Z,26.54
2023-01-29T04:18:09.413Z,26.54
2023-01-29T04:18:39.530Z,26.50
2023-01-29T04:19:09.658Z,26.59
2023-01-29T04:19:39.648Z,26.60
2023-01-29T04:20:09.764Z,26.56
2023-01-29T04:20:39.879Z,26.60
2023-01-29T04:21:09.999Z,26.54
2023-01-29T04:21:39.996Z,26.57
2023-01-29T04:22:10.116Z,26.53
2023-01-29T04:22:40.229Z,26.51
2023-01-29T04:23:10.347Z,26.56
2023-01-29T04:23:40.463Z,26.50
2023-01-29T04:24:10.627Z,26.57
2023-01-29T04:24:40.606Z,26.50
2023-01-29T04:25:10.732Z,26.60
2023-01-29T04:25:40.835Z,26.56
2023-01-29T04:26:10.834Z,26.62
2023-01-29T04:26:40.830Z,26.51
2023-01-29T04:27:10.948Z,26.55
2023-01-29T04:27:41.069Z,26.57
2023-01-29T04:28:11.072Z,26.52
2023-01-29T04:28:41.184Z,26.50
2023-01-29T04:29:11.305Z,26.54
2023-01-29T04:29:41.299Z,26.52
2023-01-29T04:30:11.416Z,26.54
2023-01-29T04:30:41.564Z,26.54
2023-01-29T04:31:11.640Z,26.55
2023-01-29T04:31:41.798Z,26.57
2023-01-29T04:32:11.654Z,26.62
2023-01-29T04:32:41.771Z,26.54
2023-01-29T04:33:11.893Z,26.55
2023-01-29T04:33:41.887Z,26.51
2023-01-29T04:34:12.007Z,26.54
2023-01-29T04:34:41.997Z,26.59
2023-01-29T04:35:12.113Z,26.60
2023-01-29T04:35:42.129Z,26.54
2023-01-29T04:36:12.226Z,26.52
2023-01-29T04:36:42.221Z,26.51
2023-01-29T04:37:12.341Z,26.50
2023-01-29T04:37:42.454Z,26.52
2023-01-29T04:38:12.600Z,26.52
2023-01-29T04:38:42.688Z,26.52
2023-01-29T04:39:12.688Z,26.57
2023-01-29T04:39:42.688Z,26.55
2023-01-29T04:40:12.801Z,26.60
2023-01-29T04:40:42.791Z,26.50
2023-01-29T04:41:12.919Z,26.57
2023-01-29T04:41:42.906Z,26.52
2023-01-29T04:42:13.026Z,26.55
2023-01-29T04:42:43.139Z,26.50
2023-01-29T04:43:13.270Z,26.50
2023-01-29T04:43:43.378Z,26.58
2023-01-29T04:44:13.396Z,26.46
2023-01-29T04:44:43.388Z,26.52
2023-01-29T04:45:13.526Z,26.55
2023-01-29T04:45:43.501Z,26.51
2023-01-29T04:46:13.618Z,26.57
2023-01-29T04:46:43.741Z,26.51
2023-01-29T04:47:13.789Z,26.52
2023-01-29T04:47:43.836Z,26.48
2023-01-29T04:48:13.867Z,26.50
2023-01-29T04:48:43.995Z,26.46
2023-01-29T04:49:13.984Z,26.51
2023-01-29T04:49:43.980Z,26.52
2023-01-29T04:50:14.554Z,26.51
2023-01-29T04:50:44.136Z,26.51
2023-01-29T04:51:14.168Z,26.50
2023-01-29T04:51:44.275Z,26.51
2023-01-29T04:52:14.408Z,26.52
2023-01-29T04:52:44.384Z,26.51
2023-01-29T04:53:14.376Z,26.52
2023-01-29T04:53:44.494Z,26.51
2023-01-29T04:54:14.489Z,26.50
2023-01-29T04:54:44.506Z,26.48
2023-01-29T04:55:14.631Z,26.50
2023-01-29T04:55:44.742Z,26.54
2023-01-29T04:56:14.742Z,26.54
2023-01-29T04:56:44.864Z,26.52
2023-01-29T04:57:14.974Z,26.50
2023-01-29T04:57:45.097Z,26.52
2023-01-29T04:58:15.204Z,26.54
2023-01-29T04:58:45.341Z,26.54
2023-01-29T04:59:15.342Z,26.57
2023-01-29T04:59:45.342Z,26.55
2023-01-29T05:00:15.906Z,26.49
2023-01-29T05:00:45.448Z,26.51
2023-01-29T05:01:15.443Z,26.50
2023-01-29T05:01:45.583Z,26.57
2023-01-29T05:02:15.455Z,26.50
2023-01-29T05:02:45.554Z,26.63
2023-01-29T05:03:15.445Z,26.55
2023-01-29T05:03:45.459Z,26.63
2023-01-29T05:04:15.445Z,26.61
2023-01-29T05:04:45.555Z,26.54
2023-01-29T05:05:15.552Z,26.57
2023-01-29T05:05:45.552Z,26.52
2023-01-29T05:06:15.662Z,26.64
2023-01-29T05:06:45.657Z,26.54
2023-01-29T05:07:15.652Z,26.57
2023-01-29T05:07:45.731Z,26.57
2023-01-29T05:08:15.816Z,26.55
2023-01-29T05:08:45.907Z,26.55
2023-01-29T05:09:15.990Z,26.55
2023-01-29T05:09:46.098Z,26.52
2023-01-29T05:10:16.516Z,26.51
2023-01-29T05:10:46.248Z,26.55
2023-01-29T05:11:16.335Z,26.57
2023-01-29T05:11:46.447Z,26.60
2023-01-29T05:12:16.517Z,26.60
2023-01-29T05:12:46.653Z,26.55
2023-01-29T05:13:16.766Z,26.45
2023-01-29T05:13:46.756Z,26.60
2023-01-29T05:14:16.837Z,26.52
2023-01-29T05:14:46.915Z,26.50
2023-01-29T05:15:17.016Z,26.52
2023-01-29T05:15:47.176Z,26.42
2023-01-29T05:16:17.164Z,26.52
2023-01-29T05:16:47.263Z,26.49
2023-01-29T05:17:17.342Z,26.51
2023-01-29T05:17:47.484Z,26.55
2023-01-29T05:18:17.504Z,26.54
2023-01-29T05:18:47.522Z,26.46
2023-01-29T05:19:17.489Z,26.48
2023-01-29T05:19:47.606Z,26.51
2023-01-29T05:20:18.133Z,26.50
2023-01-29T05:20:47.679Z,26.46
2023-01-29T05:21:17.799Z,26.48
2023-01-29T05:21:47.803Z,26.43
2023-01-29T05:22:17.811Z,26.46
2023-01-29T05:22:47.784Z,26.48
2023-01-29T05:23:17.783Z,26.45
2023-01-29T05:23:47.918Z,26.51
2023-01-29T05:24:18.002Z,26.46
2023-01-29T05:24:47.992Z,26.46
2023-01-29T05:25:17.988Z,26.43
2023-01-29T05:25:48.112Z,26.39
2023-01-29T05:26:18.119Z,26.43
2023-01-29T05:26:48.109Z,26.42
2023-01-29T05:27:18.115Z,26.45
2023-01-29T05:27:48.224Z,26.46
2023-01-29T05:28:18.214Z,26.49
2023-01-29T05:28:48.341Z,26.48
2023-01-29T05:29:18.335Z,26.46
2023-01-29T05:29:48.338Z,26.40
2023-01-29T05:30:18.743Z,26.45
2023-01-29T05:30:48.438Z,26.48
2023-01-29T05:31:18.526Z,26.46
2023-01-29T05:31:48.585Z,26.49
2023-01-29T05:32:18.603Z,26.41
2023-01-29T05:32:48.720Z,26.46
2023-01-29T05:33:18.728Z,26.43
2023-01-29T05:33:48.832Z,26.35
2023-01-29T05:34:18.831Z,26.50
2023-01-29T05:34:48.828Z,26.48
2023-01-29T05:35:18.832Z,26.39
2023-01-29T05:35:48.942Z,26.46
2023-01-29T05:36:18.939Z,26.48
2023-01-29T05:36:49.059Z,26.40
2023-01-29T05:37:19.197Z,26.45
2023-01-29T05:37:49.199Z,26.45
2023-01-29T05:38:19.203Z,26.40
2023-01-29T05:38:49.308Z,26.48
2023-01-29T05:39:19.301Z,26.42
2023-01-29T05:39:49.311Z,26.48
2023-01-29T05:40:19.447Z,26.43
2023-01-29T05:40:49.339Z,26.40
2023-01-29T05:41:19.331Z,26.45
2023-01-29T05:41:49.452Z,26.45
2023-01-29T05:42:19.459Z,26.45
2023-01-29T05:42:49.452Z,26.52
2023-01-29T05:43:19.569Z,26.42
2023-01-29T05:43:49.683Z,26.45
2023-01-29T05:44:19.680Z,26.43
2023-01-29T05:44:49.716Z,26.49
2023-01-29T05:45:19.701Z,26.46
2023-01-29T05:45:49.698Z,26.43
2023-01-29T05:46:19.728Z,26.46
2023-01-29T05:46:49.796Z,26.50
2023-01-29T05:47:19.812Z,26.45
2023-01-29T05:47:49.957Z,26.43
2023-01-29T05:48:20.053Z,26.40
2023-01-29T05:48:50.057Z,26.43
2023-01-29T05:49:20.060Z,26.49
2023-01-29T05:49:50.061Z,26.46
2023-01-29T05:50:20.053Z,26.46
2023-01-29T05:50:50.059Z,26.50
2023-01-29T05:51:20.029Z,26.43
2023-01-29T05:51:50.157Z,26.47
2023-01-29T05:52:20.157Z,26.46
2023-01-29T05:52:50.271Z,26.49
2023-01-29T05:53:20.271Z,26.43
2023-01-29T05:53:50.259Z,26.45
2023-01-29T05:54:20.261Z,26.48
2023-01-29T05:54:50.254Z,26.47
2023-01-29T05:55:20.249Z,26.37
2023-01-29T05:55:50.247Z,26.49
2023-01-29T05:56:20.239Z,26.51
2023-01-29T05:56:50.383Z,26.41
2023-01-29T05:57:20.351Z,26.48
2023-01-29T05:57:50.348Z,26.47
2023-01-29T05:58:20.351Z,26.46
2023-01-29T05:58:50.477Z,26.47
2023-01-29T05:59:20.480Z,26.50
2023-01-29T05:59:50.471Z,26.39
2023-01-29T06:00:20.468Z,26.46
2023-01-29T06:00:50.581Z,26.48
2023-01-29T06:01:20.581Z,26.41
2023-01-29T06:01:50.602Z,26.43
2023-01-29T06:02:20.572Z,26.41
2023-01-29T06:02:50.627Z,26.50
2023-01-29T06:03:20.658Z,26.40
2023-01-29T06:03:50.794Z,26.43
2023-01-29T06:04:20.816Z,26.40
2023-01-29T06:04:50.824Z,26.41
2023-01-29T06:05:20.814Z,26.48
2023-01-29T06:05:50.809Z,26.43
2023-01-29T06:06:20.931Z,26.43
2023-01-29T06:06:51.047Z,26.43
2023-01-29T06:07:21.156Z,26.49
2023-01-29T06:07:51.236Z,26.49
2023-01-29T06:08:21.326Z,26.47
2023-01-29T06:08:51.349Z,26.45
2023-01-29T06:09:21.427Z,26.45
2023-01-29T06:09:51.508Z,26.47
2023-01-29T06:10:21.599Z,26.47
2023-01-29T06:10:51.667Z,26.50
2023-01-29T06:11:21.764Z,26.46
2023-01-29T06:11:51.839Z,26.40
2023-01-29T06:12:21.915Z,26.46
2023-01-29T06:12:51.999Z,26.46
2023-01-29T06:13:23.634Z,26.47
2023-01-29T06:13:52.215Z,26.41
2023-01-29T06:14:22.301Z,26.45
2023-01-29T06:14:52.392Z,26.41
2023-01-29T06:15:22.468Z,26.41
2023-01-29T06:15:52.621Z,26.39
2023-01-29T06:16:22.657Z,26.43
2023-01-29T06:16:52.624Z,26.41
2023-01-29T06:17:22.709Z,26.41
2023-01-29T06:17:52.705Z,26.48
2023-01-29T06:18:22.721Z,26.33
2023-01-29T06:18:52.840Z,26.34
2023-01-29T06:19:22.834Z,26.40
2023-01-29T06:19:52.837Z,26.41
2023-01-29T06:20:22.825Z,26.39
2023-01-29T06:20:52.839Z,26.46
2023-01-29T06:21:22.822Z,26.37
2023-01-29T06:21:52.936Z,26.45
2023-01-29T06:22:22.933Z,26.34
2023-01-29T06:22:53.052Z,26.35
2023-01-29T06:23:23.178Z,26.33
2023-01-29T06:23:53.182Z,26.38
2023-01-29T06:24:23.196Z,26.41
2023-01-29T06:24:53.292Z,26.40
2023-01-29T06:25:23.295Z,26.40
2023-01-29T06:25:53.294Z,26.41
2023-01-29T06:26:23.275Z,26.41
2023-01-29T06:26:53.395Z,26.41
2023-01-29T06:27:23.398Z,26.45